createdAt,value
2022-09-15T00:01:33.844Z,23.65
2022-09-15T00:04:03.204Z,23.77
2022-09-15T00:06:31.701Z,24.35
2022-09-15T00:09:00.437Z,23.83
2022-09-15T00:11:30.977Z,24.73
2022-09-15T00:14:01.738Z,25.27
2022-09-15T00:16:33.046Z,25.13
2022-09-15T00:19:02.101Z,23.95
2022-09-15T00:21:33.141Z,23.63
2022-09-15T00:24:02.832Z,25.23
2022-09-15T00:26:32.718Z,25.10
2022-09-15T00:29:01.785Z,26.75
2022-09-15T00:31:33.238Z,25.00
2022-09-15T00:34:03.799Z,23.55
2022-09-15T00:36:32.969Z,24.27
2022-09-15T00:39:01.468Z,23.85
2022-09-15T00:41:30.241Z,24.38
2022-09-15T00:44:00.690Z,22.42
2022-09-15T00:46:32.397Z,24.10
2022-09-15T00:49:09.209Z,24.92
2022-09-15T00:51:44.065Z,21.98
2022-09-15T00:54:16.460Z,23.15
2022-09-15T00:56:46.341Z,23.30
2022-09-15T00:59:18.110Z,23.20
2022-09-15T01:01:50.757Z,23.67
2022-09-15T01:04:19.481Z,24.33
2022-09-15T01:06:53.181Z,24.42
2022-09-15T01:09:25.868Z,24.27
2022-09-15T01:11:54.421Z,23.60
2022-09-15T01:14:23.010Z,22.70
2022-09-15T01:17:03.880Z,23.80
2022-09-15T01:20:05.410Z,22.70
2022-09-15T01:22:38.426Z,23.85
2022-09-15T01:25:10.562Z,25.13
2022-09-15T01:28:06.146Z,23.48
2022-09-15T01:30:38.305Z,21.85
2022-09-15T01:33:17.953Z,24.40
2022-09-15T01:35:53.841Z,23.55
2022-09-15T01:38:32.968Z,24.40
2022-09-15T01:41:06.860Z,23.80
2022-09-15T01:43:48.750Z,24.85
2022-09-15T01:46:19.916Z,24.98
2022-09-15T01:48:50.318Z,23.83
2022-09-15T01:51:19.619Z,24.77
2022-09-15T01:53:49.625Z,24.60
2022-09-15T01:56:18.213Z,24.40
2022-09-15T01:58:46.741Z,23.17
2022-09-15T02:01:20.163Z,22.75
2022-09-15T02:03:54.791Z,24.38
2022-09-15T02:06:35.962Z,22.73
2022-09-15T02:09:12.618Z,24.60
2022-09-15T02:11:52.169Z,23.08
2022-09-15T02:14:31.298Z,24.35
2022-09-15T02:17:01.579Z,24.35
2022-09-15T02:19:33.430Z,24.80
2022-09-15T02:22:07.713Z,23.42
2022-09-15T02:24:40.933Z,24.90
2022-09-15T02:27:13.943Z,24.10
2022-09-15T02:29:45.736Z,24.35
2022-09-15T02:32:18.379Z,22.90
2022-09-15T02:34:51.427Z,23.38
2022-09-15T02:37:21.938Z,23.17
2022-09-15T02:39:54.623Z,24.00
2022-09-15T02:42:27.489Z,22.98
2022-09-15T02:44:56.624Z,22.40
2022-09-15T02:47:28.164Z,23.60
2022-09-15T02:49:57.144Z,22.13
2022-09-15T02:52:26.105Z,20.50
2022-09-15T02:54:54.551Z,21.30
2022-09-15T02:57:24.109Z,22.00
2022-09-15T03:00:10.183Z,20.20
2022-09-15T03:02:40.279Z,21.02
2022-09-15T03:05:10.374Z,22.17
2022-09-15T03:07:39.048Z,21.63
2022-09-15T03:10:09.257Z,21.67
2022-09-15T03:12:41.604Z,21.77
2022-09-15T03:15:11.704Z,22.92
2022-09-15T03:17:43.264Z,23.02
2022-09-15T03:20:14.884Z,22.30
2022-09-15T03:22:43.866Z,22.10
2022-09-15T03:25:13.362Z,24.17
2022-09-15T03:27:42.387Z,21.75
2022-09-15T03:30:12.834Z,22.17
2022-09-15T03:32:42.995Z,21.65
2022-09-15T03:35:11.686Z,21.77
2022-09-15T03:37:40.217Z,22.52
2022-09-15T03:40:10.408Z,21.88
2022-09-15T03:42:38.946Z,22.10
2022-09-15T03:45:08.443Z,21.45
2022-09-15T03:47:36.909Z,22.02
2022-09-15T03:50:07.757Z,21.00
2022-09-15T03:52:36.235Z,21.13
2022-09-15T03:55:04.965Z,20.77
2022-09-15T03:57:33.396Z,20.63
2022-09-15T04:00:01.865Z,20.42
2022-09-15T04:02:32.906Z,20.50
2022-09-15T04:05:02.684Z,20.52
2022-09-15T04:07:32.544Z,19.90
2022-09-15T04:10:00.981Z,18.50
2022-09-15T04:12:32.269Z,19.75
2022-09-15T04:15:01.110Z,20.90
2022-09-15T04:17:29.797Z,21.70
2022-09-15T04:19:58.626Z,19.85
2022-09-15T04:22:27.593Z,19.23
2022-09-15T04:24:57.463Z,20.55
2022-09-15T04:27:25.967Z,20.20
2022-09-15T04:29:54.435Z,18.98
2022-09-15T04:32:22.898Z,19.40
2022-09-15T04:34:51.357Z,18.63
2022-09-15T04:37:19.826Z,19.60
2022-09-15T04:39:49.147Z,19.75
2022-09-15T04:42:20.928Z,19.20
2022-09-15T04:44:49.398Z,18.05
2022-09-15T04:47:18.377Z,17.58
2022-09-15T04:49:47.013Z,18.90
2022-09-15T04:52:15.518Z,18.48
2022-09-15T04:54:44.005Z,18.88
2022-09-15T04:57:12.540Z,18.23
2022-09-15T04:59:42.377Z,19.60
2022-09-15T05:02:10.918Z,18.25
2022-09-15T05:04:39.432Z,18.38
2022-09-15T05:07:07.841Z,16.45
2022-09-15T05:09:36.417Z,18.85
2022-09-15T05:12:05.150Z,17.92
2022-09-15T05:14:33.605Z,18.90
2022-09-15T05:17:03.445Z,16.58
2022-09-15T05:19:32.030Z,17.13
2022-09-15T05:22:01.103Z,16.63
2022-09-15T05:24:29.554Z,16.83
2022-09-15T05:26:58.068Z,17.67
2022-09-15T05:29:27.016Z,17.98
2022-09-15T05:31:55.584Z,17.38
2022-09-15T05:34:25.471Z,16.67
2022-09-15T05:36:53.941Z,16.95
2022-09-15T05:39:22.374Z,16.70
2022-09-15T05:41:50.832Z,16.33
2022-09-15T05:44:21.337Z,17.13
2022-09-15T05:46:50.312Z,16.55
2022-09-15T05:49:18.818Z,16.45
2022-09-15T05:51:48.638Z,17.25
2022-09-15T05:54:17.078Z,16.65
2022-09-15T05:56:45.623Z,18.02
2022-09-15T05:59:14.313Z,17.33
2022-09-15T06:01:42.947Z,17.55
2022-09-15T06:04:12.276Z,18.13
2022-09-15T06:06:40.722Z,17.98
2022-09-15T06:09:10.585Z,18.98
2022-09-15T06:11:39.059Z,19.20
2022-09-15T06:14:07.652Z,17.63
2022-09-15T06:16:36.904Z,18.80
2022-09-15T06:19:05.736Z,18.20
2022-09-15T06:21:34.466Z,18.83
2022-09-15T06:24:06.878Z,18.83
2022-09-15T06:26:36.787Z,19.00
2022-09-15T06:29:06.785Z,18.60
2022-09-15T06:31:35.693Z,18.70
2022-09-15T06:34:05.323Z,18.98
2022-09-15T06:36:34.423Z,18.73
2022-09-15T06:39:03.034Z,18.60
2022-09-15T06:41:47.390Z,19.02
2022-09-15T06:44:21.783Z,19.08
2022-09-15T06:46:50.482Z,18.77
2022-09-15T06:49:19.145Z,18.63
2022-09-15T06:51:47.672Z,18.63
2022-09-15T06:54:16.974Z,18.60
2022-09-15T06:56:45.842Z,18.13
2022-09-15T06:59:15.170Z,18.55
2022-09-15T07:01:45.038Z,17.92
2022-09-15T07:04:13.506Z,16.95
2022-09-15T07:06:42.042Z,17.70
2022-09-15T07:09:12.491Z,18.55
2022-09-15T07:11:40.999Z,17.65
2022-09-15T07:14:09.527Z,18.15
2022-09-15T07:16:38.014Z,17.73
2022-09-15T07:19:08.041Z,17.83
2022-09-15T07:21:37.291Z,16.80
2022-09-15T07:24:07.766Z,17.23
2022-09-15T07:26:36.444Z,17.30
2022-09-15T07:29:06.440Z,16.50
2022-09-15T07:31:36.482Z,16.98
2022-09-15T07:34:07.495Z,16.33
2022-09-15T07:36:36.093Z,15.75
2022-09-15T07:39:05.787Z,15.75
2022-09-15T07:41:34.694Z,16.60
2022-09-15T07:44:03.537Z,15.50
2022-09-15T07:46:33.473Z,16.55
2022-09-15T07:49:03.119Z,16.88
2022-09-15T07:51:33.331Z,16.77
2022-09-15T07:54:01.841Z,18.20
2022-09-15T07:56:30.506Z,17.83
2022-09-15T07:58:59.237Z,16.55
2022-09-15T08:01:27.784Z,17.70
2022-09-15T08:03:56.398Z,18.75
2022-09-15T08:06:27.224Z,18.73
2022-09-15T08:09:00.661Z,20.73
2022-09-15T08:11:30.133Z,19.02
2022-09-15T08:14:02.259Z,18.63
2022-09-15T08:16:30.918Z,20.48
2022-09-15T08:18:59.522Z,19.80
2022-09-15T08:21:29.090Z,19.75
2022-09-15T08:24:01.185Z,19.42
2022-09-15T08:26:31.035Z,21.00
2022-09-15T08:29:00.583Z,20.60
2022-09-15T08:31:29.231Z,19.42
2022-09-15T08:33:58.074Z,19.77
2022-09-15T08:36:28.324Z,20.02
2022-09-15T08:38:58.290Z,19.48
2022-09-15T08:41:30.733Z,19.80
2022-09-15T08:44:03.478Z,20.15
2022-09-15T08:46:37.504Z,18.55
2022-09-15T08:49:12.115Z,16.95
2022-09-15T08:51:46.109Z,17.88
2022-09-15T08:54:22.005Z,17.42
2022-09-15T08:56:51.323Z,17.65
2022-09-15T08:59:21.433Z,16.85
2022-09-15T09:02:01.791Z,17.13
2022-09-15T09:04:46.332Z,16.25
2022-09-15T09:07:29.508Z,15.85
2022-09-15T09:10:05.825Z,14.65
2022-09-15T09:12:51.421Z,13.60
2022-09-15T09:15:32.702Z,12.40
2022-09-15T09:18:16.860Z,12.73
2022-09-15T09:20:54.505Z,11.93
2022-09-15T09:23:26.025Z,11.85
2022-09-15T09:25:57.808Z,9.90
2022-09-15T09:28:31.701Z,9.75
2022-09-15T09:31:08.308Z,8.60
2022-09-15T09:33:47.617Z,7.88
2022-09-15T09:36:17.114Z,7.70
2022-09-15T09:38:47.796Z,7.20
2022-09-15T09:41:19.515Z,6.70
2022-09-15T09:43:50.013Z,6.10
2022-09-15T09:46:20.211Z,7.70
2022-09-15T09:48:54.131Z,7.53
2022-09-15T09:51:35.457Z,8.55
2022-09-15T09:54:24.916Z,7.40
2022-09-15T09:56:56.500Z,8.10
2022-09-15T09:59:39.501Z,6.88
2022-09-15T10:02:18.902Z,7.55
2022-09-15T10:04:49.073Z,6.53
2022-09-15T10:07:20.421Z,6.47
2022-09-15T10:09:54.472Z,7.88
2022-09-15T10:12:29.298Z,7.75
2022-09-15T10:15:00.541Z,7.35
2022-09-15T10:17:41.170Z,7.45
2022-09-15T10:20:28.573Z,6.82
2022-09-15T10:23:05.849Z,5.93
2022-09-15T10:25:57.505Z,5.68
2022-09-15T10:28:27.800Z,5.82
2022-09-15T10:31:01.890Z,5.07
2022-09-15T10:33:31.914Z,4.88
2022-09-15T10:36:06.793Z,5.13
2022-09-15T10:38:44.952Z,4.65
2022-09-15T10:41:22.373Z,4.72
2022-09-15T10:44:14.733Z,4.82
2022-09-15T10:46:50.686Z,4.53
2022-09-15T10:49:37.381Z,4.78
2022-09-15T10:52:14.914Z,4.80
2022-09-15T10:55:02.018Z,5.80
2022-09-15T10:57:53.063Z,4.65
2022-09-15T11:00:25.620Z,5.43
2022-09-15T11:03:13.304Z,3.90
2022-09-15T11:06:02.909Z,4.30
2022-09-15T11:08:48.790Z,4.68
2022-09-15T11:11:24.159Z,4.70
2022-09-15T11:14:07.271Z,4.70
2022-09-15T11:16:51.149Z,3.80
2022-09-15T11:19:33.721Z,3.45
2022-09-15T11:22:05.800Z,3.15
2022-09-15T11:24:42.111Z,3.05
2022-09-15T11:27:19.258Z,3.63
2022-09-15T11:30:02.648Z,3.70
2022-09-15T11:32:40.010Z,4.15
2022-09-15T11:35:37.664Z,3.42
2022-09-15T11:38:20.761Z,2.80
2022-09-15T11:40:53.729Z,2.80
2022-09-15T11:43:30.898Z,3.28
2022-09-15T11:46:02.836Z,3.13
2022-09-15T11:48:40.575Z,2.83
2022-09-15T11:51:10.593Z,2.90
2022-09-15T11:53:44.801Z,2.70
2022-09-15T11:56:21.789Z,2.38
2022-09-15T11:59:01.839Z,2.28
2022-09-15T12:01:35.924Z,1.95
2022-09-15T12:04:11.416Z,2.20
2022-09-15T12:06:46.675Z,2.13
2022-09-15T12:09:17.392Z,2.13
2022-09-15T12:11:47.809Z,2.38
2022-09-15T12:14:20.186Z,2.80
2022-09-15T12:16:49.108Z,2.83
2022-09-15T12:19:37.470Z,2.67
2022-09-15T12:22:16.093Z,3.45
2022-09-15T12:24:52.003Z,2.95
2022-09-15T12:27:22.192Z,2.72
2022-09-15T12:29:51.766Z,2.90
2022-09-15T12:32:26.445Z,2.95
2022-09-15T12:35:10.162Z,2.67
2022-09-15T12:37:44.041Z,2.40
2022-09-15T12:40:35.897Z,2.40
2022-09-15T12:43:18.218Z,2.70
2022-09-15T12:45:56.216Z,3.35
2022-09-15T12:48:28.199Z,2.25
2022-09-15T12:51:01.555Z,2.70
2022-09-15T12:53:32.966Z,2.50
2022-09-15T12:56:05.415Z,2.60
2022-09-15T12:58:37.707Z,2.55
2022-09-15T13:01:31.435Z,2.50
2022-09-15T13:04:49.066Z,2.03
2022-09-15T13:07:51.215Z,2.63
2022-09-15T13:10:42.077Z,2.20
2022-09-15T13:13:23.621Z,1.80
2022-09-15T13:15:54.267Z,1.80
2022-09-15T13:18:25.025Z,2.10
2022-09-15T13:21:00.333Z,2.15
2022-09-15T13:23:36.665Z,1.90
2022-09-15T13:26:12.149Z,2.25
2022-09-15T13:28:41.240Z,2.17
2022-09-15T13:31:21.805Z,2.38
2022-09-15T13:41:00.605Z,2.00
2022-09-15T13:43:50.402Z,2.50
2022-09-15T13:46:34.579Z,2.05
2022-09-15T13:49:37.920Z,2.00
2022-09-15T13:52:15.399Z,2.13
2022-09-15T13:55:17.120Z,2.17
2022-09-15T14:00:58.075Z,2.20
2022-09-15T14:03:36.949Z,2.22
2022-09-15T14:06:16.043Z,2.35
2022-09-15T14:08:47.878Z,2.00
2022-09-15T14:11:21.835Z,2.22
2022-09-15T14:13:52.553Z,2.30
2022-09-15T14:16:25.372Z,1.80
2022-09-15T14:18:55.402Z,2.50
2022-09-15T14:21:25.941Z,2.08
2022-09-15T14:23:56.172Z,2.00
2022-09-15T14:26:27.697Z,2.10
2022-09-15T14:29:00.024Z,2.30
2022-09-15T14:31:30.619Z,2.55
2022-09-15T14:33:59.706Z,1.98
2022-09-15T14:36:30.956Z,1.95
2022-09-15T14:39:20.279Z,2.20
2022-09-15T14:41:49.996Z,1.88
2022-09-15T14:47:18.660Z,1.40
2022-09-15T14:49:47.430Z,1.85
2022-09-15T14:52:24.100Z,1.70
2022-09-15T14:54:57.768Z,1.73
2022-09-15T14:57:31.052Z,2.08
2022-09-15T15:00:07.744Z,1.55
2022-09-15T15:02:49.680Z,1.77
2022-09-15T15:05:22.580Z,1.67
2022-09-15T15:07:52.113Z,1.55
2022-09-15T15:10:24.464Z,1.42
2022-09-15T15:12:56.805Z,1.73
2022-09-15T15:15:27.057Z,1.70
2022-09-15T15:17:55.746Z,1.60
2022-09-15T15:20:27.001Z,1.95
2022-09-15T15:23:13.024Z,1.60
2022-09-15T15:25:42.497Z,1.50
2022-09-15T15:28:29.716Z,1.63
2022-09-15T15:31:14.486Z,1.60
2022-09-15T15:33:48.558Z,1.90
2022-09-15T15:36:23.761Z,1.70
2022-09-15T15:38:54.506Z,1.40
2022-09-15T15:41:25.045Z,1.27
2022-09-15T15:43:58.625Z,1.80
2022-09-15T15:46:49.868Z,1.67
2022-09-15T15:49:19.202Z,1.85
2022-09-15T15:51:47.794Z,1.52
2022-09-15T15:54:16.321Z,1.50
2022-09-15T15:56:44.826Z,1.60
2022-09-15T15:59:14.469Z,1.48
2022-09-15T16:01:43.255Z,1.80
2022-09-15T16:04:13.195Z,1.40
2022-09-15T16:06:42.411Z,1.40
2022-09-15T16:09:11.658Z,1.98
2022-09-15T16:11:41.277Z,1.40
2022-09-15T16:14:12.502Z,1.40
2022-09-15T16:16:41.200Z,1.75
2022-09-15T16:19:09.917Z,1.48
2022-09-15T16:21:42.336Z,1.45
2022-09-15T16:24:14.732Z,1.63
2022-09-15T16:26:43.736Z,1.40
2022-09-15T16:29:12.665Z,1.40
2022-09-15T16:31:42.913Z,1.20
2022-09-15T16:34:17.561Z,1.98
2022-09-15T16:36:47.721Z,1.80
2022-09-15T16:39:16.204Z,1.50
2022-09-15T16:41:44.653Z,1.52
2022-09-15T16:44:19.012Z,1.80
2022-09-15T16:46:47.541Z,1.63
2022-09-15T16:49:16.176Z,1.58
2022-09-15T16:51:44.693Z,1.73
2022-09-15T16:54:16.734Z,1.48
2022-09-15T16:56:46.446Z,1.75
2022-09-15T16:59:15.134Z,2.15
2022-09-15T17:01:43.584Z,1.35
2022-09-15T17:04:16.717Z,1.50
2022-09-15T17:06:45.501Z,1.95
2022-09-15T17:09:15.318Z,1.60
2022-09-15T17:11:43.753Z,1.73
2022-09-15T17:14:15.464Z,1.65
2022-09-15T17:16:47.242Z,2.00
2022-09-15T17:19:15.880Z,1.65
2022-09-15T17:21:44.301Z,1.55
2022-09-15T17:24:12.746Z,1.83
2022-09-15T17:26:42.541Z,1.77
2022-09-15T17:29:11.093Z,1.80
2022-09-15T17:31:39.638Z,1.65
2022-09-15T17:34:13.890Z,1.55
2022-09-15T17:36:42.362Z,1.95
2022-09-15T17:39:10.826Z,1.80
2022-09-15T17:41:39.591Z,1.60
2022-09-15T17:44:12.492Z,1.60
2022-09-15T17:46:41.017Z,1.65
2022-09-15T17:49:09.656Z,1.40
2022-09-15T17:51:38.070Z,1.42
2022-09-15T17:54:07.452Z,1.70
2022-09-15T17:56:35.897Z,1.35
2022-09-15T17:59:04.497Z,1.60
2022-09-15T18:01:34.387Z,1.83
2022-09-15T18:04:03.497Z,1.67
2022-09-15T18:06:31.907Z,1.58
2022-09-15T18:09:00.344Z,1.73
2022-09-15T18:11:28.933Z,1.58
2022-09-15T18:13:58.410Z,1.70
2022-09-15T18:16:26.885Z,1.90
2022-09-15T18:18:56.713Z,1.80
2022-09-15T18:21:29.103Z,1.98
2022-09-15T18:23:57.561Z,1.60
2022-09-15T18:26:26.822Z,1.60
2022-09-15T18:28:56.879Z,1.40
2022-09-15T18:31:25.512Z,1.40
2022-09-15T18:33:54.148Z,1.73
2022-09-15T18:36:24.070Z,1.45
2022-09-15T18:38:52.650Z,1.40
2022-09-15T18:41:21.138Z,1.40
2022-09-15T18:43:49.887Z,1.48
2022-09-15T18:46:18.569Z,1.30
2022-09-15T18:48:47.182Z,2.15
2022-09-15T18:51:23.715Z,1.20
2022-09-15T18:53:59.278Z,1.55
2022-09-15T18:56:27.775Z,1.50
2022-09-15T18:58:56.623Z,1.58
2022-09-15T19:01:25.261Z,1.40
2022-09-15T19:03:54.060Z,1.25
2022-09-15T19:06:22.742Z,1.73
2022-09-15T19:08:51.189Z,1.75
2022-09-15T19:11:21.083Z,1.27
2022-09-15T19:13:49.577Z,1.88
2022-09-15T19:16:20.172Z,1.65
2022-09-15T19:18:51.807Z,1.08
2022-09-15T19:21:23.911Z,1.30
2022-09-15T19:23:58.666Z,1.27
2022-09-15T19:26:29.472Z,1.60
2022-09-15T19:28:58.905Z,1.40
2022-09-15T19:31:28.587Z,1.58
2022-09-15T19:33:57.144Z,1.48
2022-09-15T19:36:29.424Z,1.45
2022-09-15T19:38:58.429Z,1.25
2022-09-15T19:41:28.303Z,1.77
2022-09-15T19:43:56.816Z,1.70
2022-09-15T19:46:26.253Z,1.65
2022-09-15T19:48:55.740Z,1.70
2022-09-15T19:51:24.729Z,1.60
2022-09-15T19:53:55.397Z,1.73
2022-09-15T19:56:26.684Z,1.70
2022-09-15T19:58:57.831Z,1.25
2022-09-15T20:01:28.133Z,1.63
2022-09-15T20:03:57.749Z,2.63
2022-09-15T20:06:31.622Z,1.40
2022-09-15T20:09:01.206Z,1.88
2022-09-15T20:11:30.867Z,1.40
2022-09-15T20:14:01.000Z,1.65
2022-09-15T20:16:30.188Z,1.48
2022-09-15T20:18:58.728Z,1.50
2022-09-15T20:21:48.790Z,1.33
2022-09-15T20:24:17.886Z,1.20
2022-09-15T20:26:46.434Z,0.90
2022-09-15T20:29:16.263Z,1.40
2022-09-15T20:31:44.825Z,1.40
2022-09-15T20:34:13.353Z,1.33
2022-09-15T20:36:41.988Z,1.30
2022-09-15T20:39:13.338Z,1.13
2022-09-15T20:41:44.879Z,1.13
2022-09-15T20:44:14.093Z,1.00
2022-09-15T20:46:44.233Z,1.02
2022-09-15T20:49:13.181Z,1.17
2022-09-15T20:51:42.225Z,1.70
2022-09-15T20:54:11.833Z,1.02
2022-09-15T20:56:40.266Z,1.00
2022-09-15T20:59:10.567Z,1.20
2022-09-15T21:01:40.191Z,1.35
2022-09-15T21:04:11.208Z,1.13
2022-09-15T21:06:40.429Z,1.00
2022-09-15T21:09:09.382Z,1.02
2022-09-15T21:11:39.149Z,1.65
2022-09-15T21:14:07.709Z,1.13
2022-09-15T21:16:36.264Z,1.10
2022-09-15T21:19:05.123Z,1.33
2022-09-15T21:21:35.806Z,1.35
2022-09-15T21:24:06.193Z,1.20
2022-09-15T21:26:56.610Z,1.30
2022-09-15T21:29:25.537Z,1.13
2022-09-15T21:31:55.618Z,1.20
2022-09-15T21:34:24.855Z,1.20
2022-09-15T21:36:54.790Z,1.17
2022-09-15T21:39:23.246Z,1.38
2022-09-15T21:41:51.690Z,1.17
2022-09-15T21:44:20.191Z,1.17
2022-09-15T21:46:48.644Z,1.25
2022-09-15T21:49:18.289Z,1.63
2022-09-15T21:51:47.394Z,1.20
2022-09-15T21:54:17.836Z,1.23
2022-09-15T21:56:46.353Z,0.98
2022-09-15T21:59:15.984Z,1.40
2022-09-15T22:01:44.839Z,1.10
2022-09-15T22:04:13.346Z,1.15
2022-09-15T22:06:42.580Z,1.20
2022-09-15T22:09:14.818Z,0.98
2022-09-15T22:11:45.333Z,1.05
2022-09-15T22:14:14.316Z,1.67
2022-09-15T22:16:43.721Z,1.30
2022-09-15T22:19:13.227Z,1.25
2022-09-15T22:21:42.927Z,1.20
2022-09-15T22:24:13.016Z,1.30
2022-09-15T22:26:42.697Z,1.42
2022-09-15T22:29:12.993Z,1.13
2022-09-15T22:31:42.054Z,1.27
2022-09-15T22:34:10.732Z,1.35
2022-09-15T22:36:39.454Z,0.93
2022-09-15T22:39:08.237Z,1.40
2022-09-15T22:41:38.062Z,1.20
2022-09-15T22:44:07.741Z,1.30
2022-09-15T22:46:37.543Z,0.80
2022-09-15T22:49:06.031Z,1.73
2022-09-15T22:51:34.469Z,1.20
2022-09-15T22:54:03.410Z,1.45
2022-09-15T22:56:31.907Z,0.95
2022-09-15T22:59:00.733Z,1.10
2022-09-15T23:01:31.055Z,1.17
2022-09-15T23:04:02.642Z,1.40
2022-09-15T23:06:34.866Z,1.20
2022-09-15T23:09:08.444Z,1.10
2022-09-15T23:11:39.651Z,1.10
2022-09-15T23:14:10.162Z,1.65
2022-09-15T23:16:38.671Z,1.50
2022-09-15T23:19:08.693Z,0.95
2022-09-15T23:21:37.147Z,1.00
2022-09-15T23:24:06.158Z,1.33
2022-09-15T23:26:34.675Z,1.20
2022-09-15T23:29:03.322Z,1.00
2022-09-15T23:31:31.807Z,1.30
2022-09-15T23:34:00.316Z,1.00
2022-09-15T23:36:30.189Z,1.13
2022-09-15T23:38:58.661Z,1.10
2022-09-15T23:41:27.082Z,1.13
2022-09-15T23:43:56.855Z,1.48
2022-09-15T23:46:25.369Z,1.05
2022-09-15T23:48:53.861Z,1.10
2022-09-15T23:51:22.314Z,1.15
2022-09-15T23:53:52.307Z,1.13
2022-09-15T23:56:20.852Z,1.48
2022-09-15T23:58:49.351Z,1.15
